Chadstone Weather > Observations for 03/09/20

Select Day:



Observations
Time Temp Hum DP Wind Gust Dir Rain >9am Press
C % C kph kph mm hPa
00:00 15.8 71 10.6 0.1 3.6 W 0.0 1016.2
00:10 15.6 72 10.6 0.0 1.1 W 0.0 1016.4
00:20 15.4 73 10.6 0.1 2.5 W 0.0 1016.5
00:30 15.2 73 10.4 0.0 2.5 SE 0.0 1016.4
00:40 15.0 74 10.4 0.4 2.5 SE 0.0 1016.5
00:50 15.0 75 10.6 0.2 3.6 ESE 0.0 1016.6
01:00 15.0 75 10.6 0.0 0.0 N 0.0 1016.3
01:10 14.9 76 10.7 0.3 3.6 SSE 0.0 1016.2
01:20 14.8 77 10.8 0.7 3.6 SW 0.0 1016.0
01:30 14.9 77 10.9 0.6 3.6 S 0.0 1016.0
01:40 14.8 77 10.8 0.0 2.5 SE 0.0 1015.7
01:50 14.7 78 10.9 1.1 5.0 ENE 0.0 1015.5
02:00 14.5 78 10.7 1.7 3.6 SE 0.0 1015.2
02:10 14.4 78 10.6 1.6 5.0 ENE 0.0 1015.2
02:20 14.4 79 10.8 0.8 3.6 NNE 0.0 1014.8
02:30 14.3 79 10.7 0.1 2.5 SE 0.0 1014.8
02:40 14.3 79 10.7 1.2 3.6 N 0.0 1014.6
02:50 14.3 79 10.7 0.6 3.6 NE 0.0 1014.5
03:00 14.3 79 10.7 1.9 5.0 N 0.0 1014.6
03:10 14.2 78 10.4 2.6 6.1 NE 0.0 1014.4
03:20 14.2 78 10.4 3.2 5.0 NNE 0.0 1014.5
03:30 14.2 77 10.2 3.5 8.6 NNE 0.0 1014.5
03:40 13.9 78 10.1 2.7 5.0 WNW 0.0 1014.3
03:50 14.0 77 10.0 3.4 9.7 N 0.0 1014.1
04:00 14.0 77 10.0 3.2 9.7 NNW 0.0 1014.2
04:10 14.0 76 9.8 2.7 6.1 NNW 0.0 1013.9
04:20 13.9 77 9.9 3.6 7.2 NNW 0.0 1014.1
04:30 13.8 77 9.8 4.9 9.7 NNE 0.0 1014.1
04:40 13.6 77 9.6 3.1 7.2 NNW 0.0 1014.2
04:50 13.6 77 9.6 4.6 8.6 NW 0.0 1014.0
05:00 13.5 76 9.4 3.0 8.6 NNW 0.0 1014.2
05:10 13.5 76 9.4 2.4 5.0 NNW 0.0 1014.2
05:20 13.4 76 9.3 3.5 11.2 NNW 0.0 1014.3
05:30 13.4 75 9.1 4.0 9.7 NNW 0.0 1014.3
05:40 13.4 75 9.1 4.6 8.6 NNW 0.0 1014.1
05:50 13.5 73 8.8 4.5 8.6 NNW 0.0 1014.0
06:00 13.5 71 8.3 4.5 7.2 NNW 0.0 1014.0
06:10 13.4 71 8.3 4.4 7.2 N 0.0 1014.0
06:20 13.4 71 8.3 4.3 7.2 WNW 0.0 1013.9
06:30 13.4 71 8.3 5.4 8.6 N 0.0 1014.0
06:40 13.4 72 8.5 7.9 13.3 NNW 0.0 1013.9
06:50 13.4 70 8.0 9.9 14.8 N 0.0 1013.9
07:00 13.5 68 7.7 10.5 22.0 N 0.0 1013.9
07:10 13.6 67 7.6 10.7 20.9 N 0.0 1014.1
07:20 13.8 66 7.6 11.8 19.4 N 0.0 1014.2
07:30 14.1 64 7.4 11.0 22.0 NNW 0.0 1014.3
07:40 14.4 62 7.2 12.0 23.4 NNW 0.0 1014.3
07:50 14.5 60 6.8 11.1 24.5 NNW 0.0 1014.5
08:00 14.7 59 6.8 11.5 22.0 NW 0.0 1014.5
08:10 15.1 58 6.9 12.1 24.5 N 0.0 1014.5
08:20 15.4 57 6.9 11.5 23.4 NNW 0.0 1014.5
08:30 15.7 55 6.7 11.4 29.5 NNW 0.0 1014.6
08:40 16.0 54 6.7 13.9 29.5 NNW 0.0 1014.5
08:50 16.2 53 6.6 13.3 29.5 NW 0.0 1014.4
09:00 16.5 53 6.9 17.5 33.1 NNW 0.0 1014.6
09:10 16.6 53 7.0 17.9 33.1 NNW 0.0 1014.6
09:20 16.8 52 6.9 15.3 33.1 NW 0.0 1014.6
09:30 16.9 52 7.0 17.5 39.2 NW 0.0 1014.7
09:40 16.9 53 7.3 19.2 39.2 NNW 0.0 1014.7
09:50 16.9 54 7.5 18.4 36.7 NW 0.0 1014.7
10:00 17.2 53 7.5 16.4 33.1 NW 0.0 1014.7
10:10 17.4 53 7.7 15.5 33.1 NNW 0.0 1014.7
10:20 17.6 52 7.6 15.6 33.1 NNW 0.0 1014.4
10:30 17.8 52 7.8 17.3 37.8 NNW 0.0 1014.2
10:40 17.9 51 7.6 21.0 35.6 NNW 0.0 1014.2
10:50 18.2 47 6.7 19.5 36.7 NW 0.0 1014.1
11:00 18.5 46 6.7 19.1 36.7 WNW 0.0 1014.1
11:10 18.7 46 6.9 20.0 39.2 NNW 0.0 1014.1
11:20 18.7 45 6.5 21.4 42.8 NW 0.0 1014.0
11:30 18.7 46 6.9 21.8 41.8 NW 0.0 1013.8
11:40 19.0 45 6.8 20.7 37.8 NNW 0.0 1013.7
11:50 19.2 44 6.7 22.8 45.4 NW 0.0 1013.6
12:00 19.2 44 6.7 20.5 45.4 NNW 0.0 1013.6
12:10 19.7 42 6.4 18.5 43.9 NW 0.0 1013.8
12:20 19.8 37 4.7 25.6 41.8 N 0.0 1014.5
12:30 19.9 37 4.8 19.5 36.7 NW 0.0 1015.0
12:40 20.1 37 5.0 18.6 37.8 NW 0.0 1015.4
12:50 19.8 38 5.1 18.6 36.7 NNW 0.0 1015.4
13:00 19.7 39 5.4 19.4 39.2 NW 0.0 1015.5
13:10 19.7 39 5.4 19.4 46.4 NW 0.0 1015.6
13:20 19.5 40 5.6 18.7 41.8 NW 0.0 1015.5
13:30 19.5 39 5.2 23.8 39.2 NNW 0.0 1015.4
13:40 19.7 39 5.4 19.3 40.3 WNW 0.0 1015.5
13:50 20.2 35 4.3 19.5 47.9 NW 0.0 1015.7
14:00 19.8 35 3.9 22.8 40.3 NW 0.0 1015.9
14:10 19.4 36 4.0 22.3 42.8 NNW 0.0 1015.8
14:20 19.3 37 4.3 19.2 35.6 NW 0.0 1016.1
14:30 19.0 38 4.4 19.2 42.8 NW 0.0 1016.3
14:40 18.8 39 4.6 19.8 41.8 NW 0.0 1016.4
14:50 18.5 40 4.7 21.0 36.7 NNW 0.0 1016.5
15:00 18.4 43 5.6 21.2 39.2 WNW 0.0 1016.6
15:10 17.9 45 5.8 19.8 46.4 NW 0.0 1016.7
15:20 17.5 43 4.8 20.5 37.8 NW 0.0 1017.0
15:30 17.1 47 5.7 20.3 36.7 WNW 0.0 1016.9
15:40 17.1 45 5.1 19.2 31.7 WNW 0.0 1017.0
15:50 16.9 47 5.5 19.1 36.7 WNW 0.0 1017.0
16:00 16.7 51 6.5 18.3 37.8 NW 0.0 1016.9
16:10 16.7 52 6.8 16.1 34.2 WNW 0.0 1017.0
16:20 16.7 53 7.1 15.3 33.1 NNW 0.0 1017.3
16:30 16.6 54 7.3 16.8 33.1 NW 0.0 1017.5
16:40 16.4 54 7.1 14.4 28.1 NW 0.0 1017.7
16:50 16.3 55 7.2 13.9 29.5 NNW 0.0 1017.8
17:00 16.3 55 7.2 15.9 29.5 WNW 0.0 1017.9
17:10 16.3 54 7.0 10.8 27.0 NW 0.0 1018.0
17:20 16.3 54 7.0 13.2 28.1 NW 0.0 1018.1
17:30 16.3 54 7.0 10.5 28.1 NW 0.0 1018.2
17:40 16.3 53 6.7 11.9 23.4 NW 0.0 1018.5
17:50 16.2 55 7.2 10.6 25.6 WNW 0.0 1018.8
18:00 15.9 56 7.1 11.4 23.4 W 0.0 1019.2
18:10 15.7 57 7.2 11.9 22.0 WNW 0.0 1019.6
18:20 15.5 58 7.3 8.6 20.9 WNW 0.0 1019.8
18:30 15.3 58 7.1 10.4 22.0 W 0.0 1019.9
18:40 15.3 57 6.8 11.6 28.1 NW 0.0 1019.9
18:50 15.3 55 6.3 12.6 24.5 WNW 0.0 1020.0
19:00 15.3 54 6.1 14.8 27.0 NW 0.0 1020.0
19:10 15.3 53 5.8 13.3 28.1 WNW 0.0 1020.1
19:20 15.3 53 5.8 12.2 27.0 WNW 0.0 1020.2
19:30 15.3 53 5.8 9.9 25.6 NW 0.0 1020.3
19:40 15.2 52 5.4 10.1 18.4 NW 0.0 1020.3
19:50 15.1 52 5.3 7.4 15.8 NW 0.0 1020.1
20:00 15.0 51 5.0 7.1 15.8 NW 0.0 1020.2
20:10 15.0 51 5.0 6.1 19.4 NW 0.0 1020.4
20:20 14.9 50 4.6 10.5 22.0 NW 0.0 1020.9
20:30 15.0 47 3.8 13.1 22.0 W 0.0 1021.1
20:40 15.0 47 3.8 8.9 22.0 WNW 0.0 1021.2
20:50 15.0 48 4.1 9.8 24.5 WNW 0.0 1021.5
21:00 14.9 50 4.6 10.1 23.4 WNW 0.0 1021.7
21:10 14.8 52 5.0 12.2 22.0 NW 0.0 1021.8
21:20 14.7 53 5.2 10.9 20.9 NW 0.0 1021.8
21:30 14.7 54 5.5 8.2 17.3 WNW 0.0 1021.9
21:40 14.6 54 5.4 8.9 17.3 WNW 0.0 1022.3
21:50 14.6 54 5.4 8.6 17.3 NW 0.0 1022.2
22:00 14.5 54 5.3 6.0 11.2 WNW 0.0 1022.3
22:10 14.4 55 5.5 7.0 13.3 NW 0.0 1022.2
22:20 14.3 55 5.4 6.2 14.8 NW 0.0 1022.4
22:30 14.3 55 5.4 8.9 22.0 NW 0.0 1022.3
22:40 14.1 55 5.2 7.5 18.4 WNW 0.0 1022.3
22:50 14.0 55 5.1 5.3 11.2 NW 0.0 1022.4
23:00 13.8 57 5.4 6.7 20.9 NW 0.0 1022.3
23:10 13.8 58 5.7 8.7 17.3 NW 0.0 1022.3
23:20 13.6 58 5.5 9.5 17.3 WNW 0.0 1022.3
23:30 13.6 58 5.5 3.9 14.8 NW 0.0 1022.4
23:40 13.5 58 5.4 6.0 18.4 WNW 0.0 1022.4
23:50 13.4 59 5.6 5.5 12.2 WNW 0.0 1022.4